• Join FlightAware (Why Join?)
  • Login
  • US Flag 
06:33AM EDT


 

Airport Tracker/Info


-or-


 

Live Flight TrackerFlight Track Log ✈ N567GJ ✈ 28-Jul-2013 ✈ 7W5 - 05C

Flight Track Log - Related Links

Times and Time Zones

All times are in EDT time to prevent confusion due to time zone crossing. See the N567GJ flight status page for this flight to view local times or setup timezone preferences in your user account.

Time Position Orientation Groundspeed Altitude Reporting Facility
EDT Latitude Longitude Course Direction KTS MPH feet Rate Location/Type
02:21PM 41.3833 -84.1769 271° West 151 174 3,100  Level Chicago Center
02:22PM 41.3844 -84.2375 271° West 163 188 3,900 900 Climbing Chicago Center
02:23PM 41.3883 -84.2967 275° West 163 188 5,000 1,200 Climbing Chicago Center
02:24PM 41.3922 -84.3642 274° West 157 181 6,400 1,200 Climbing Chicago Center
02:25PM 41.3950 -84.4150 274° West 148 170 7,500 900 Climbing Chicago Center
02:26PM 41.3978 -84.4683 274° West 145 167 8,300 900 Climbing Chicago Center
02:27PM 41.4000 -84.5256 273° West 150 173 9,400 900 Climbing Chicago Center
02:28PM 41.4028 -84.5814 274° West 151 174 10,200 780 Climbing Chicago Center
02:29PM 41.4061 -84.6394 274° West 154 177 11,100 960 Climbing Chicago Center
02:30PM 41.4086 -84.7069 273° West 153 176 12,200 840 Climbing Chicago Center
02:31PM 41.4108 -84.7603 273° West 146 168 12,900 720 Climbing Chicago Center
02:32PM 41.4144 -84.8136 275° West 146 168 13,700 480 Climbing Chicago Center
02:33PM 41.4164 -84.8658 273° West 144 166 14,000 120 Climbing Chicago Center
02:35PM 41.4200 -84.9286 274° West 166 191 14,000  Level Chicago Center
02:36PM 41.4233 -84.9950 274° West 178 205 14,000  Level Chicago Center
02:37PM 41.4269 -85.0781 273° West 187 215 14,000  Level Chicago Center
02:38PM 41.4322 -85.1511 276° West 195 224 14,000  Level Chicago Center
02:39PM 41.4342 -85.2242 272° West 198 228 14,000  Level Chicago Center
02:40PM 41.4392 -85.2994 275° West 202 232 14,000  Level Chicago Center
02:41PM 41.4419 -85.3750 273° West 202 232 14,000  Level Chicago Center
02:42PM 41.4456 -85.4497 274° West 202 232 14,000  Level Chicago Center
02:43PM 41.4492 -85.5253 274° West 203 234 14,000  Level Chicago Center
02:44PM 41.4528 -85.6142 273° West 200 230 14,000  Level Chicago Center
02:45PM 41.4558 -85.6892 273° West 201 231 14,000  Level Chicago Center
02:46PM 41.4597 -85.7633 274° West 201 231 14,000  Level Chicago Center
02:47PM 41.4617 -85.8386 272° West 202 232 14,000 -480 Level Chicago Center
02:48PM 41.4644 -85.9172 273° West 208 239 13,100 -540 Descending Chicago Center
02:49PM 41.4692 -86.0000 274° West 221 254 13,000 -600 Descending Chicago Center
02:50PM 41.4725 -86.0936 273° West 213 245 11,900 -1,020 Descending Chicago Center
02:51PM 41.4764 -86.1769 274° West 220 253 10,900 -900 Descending Chicago Center
02:52PM 41.4806 -86.2569 274° West 220 253 10,100 -480 Descending Chicago Center
02:53PM 41.4836 -86.3353 273° West 217 250 10,000 -240 Descending Chicago Center
02:54PM 41.4853 -86.4072 272° West 206 237 9,700 -780 Descending Chicago Center
02:55PM 41.4856 -86.4858 270° West 206 237 8,400 -1,260 Descending Chicago Center
02:56PM 41.4908 -86.5856 274° West 217 250 7,100 -1,020 Descending Chicago Center
02:57PM 41.4958 -86.6644 275° West 217 250 6,400 -780 Descending Chicago Center
02:58PM 41.4958 -86.7394 270° West 211 243 5,500 -720 Descending Chicago Center
02:59PM 41.5039 -86.8125 278° West 204 235 5,000 -540 Descending Chicago Center
03:00PM 41.5117 -86.8894 278° West 199 229 4,400 -540 Descending Chicago Center
03:01PM 41.5183 -86.9567 278° West 199 229 3,900 -600 Descending Chicago Center
03:02PM 41.5283 -87.0378 279° West 197 227 3,200 -300 Descending Chicago Center
03:05PM 41.5500 -87.2167 279° West 184 212 2,900 -420 Descending Chicago TRACON
03:06PM 41.5333 -87.2833 252° West 190 219 1,800 -1,140 Descending Chicago TRACON